sensor_id;sensor_type;location;lat;lon;timestamp;temperature;humidity
6662;DHT22;3367;48.714;8.994;2023-04-10T00:00:30;4.00;99.90
6662;DHT22;3367;48.714;8.994;2023-04-10T00:02:57;3.90;99.90
6662;DHT22;3367;48.714;8.994;2023-04-10T00:05:24;3.70;1.00
6662;DHT22;3367;48.714;8.994;2023-04-10T00:07:51;3.60;1.00
6662;DHT22;3367;48.714;8.994;2023-04-10T00:10:19;3.60;1.00
6662;DHT22;3367;48.714;8.994;2023-04-10T00:12:45;3.40;1.00
6662;DHT22;3367;48.714;8.994;2023-04-10T00:15:13;3.30;1.00
6662;DHT22;3367;48.714;8.994;2023-04-10T00:17:40;3.30;1.00
6662;DHT22;3367;48.714;8.994;2023-04-10T00:20:08;3.40;1.00
6662;DHT22;3367;48.714;8.994;2023-04-10T00:22:35;3.40;1.00
6662;DHT22;3367;48.714;8.994;2023-04-10T00:25:02;3.40;1.00
6662;DHT22;3367;48.714;8.994;2023-04-10T00:27:30;3.40;1.00
6662;DHT22;3367;48.714;8.994;2023-04-10T00:29:57;3.40;1.00
6662;DHT22;3367;48.714;8.994;2023-04-10T00:32:25;3.30;1.00
6662;DHT22;3367;48.714;8.994;2023-04-10T00:34:52;3.30;1.00
6662;DHT22;3367;48.714;8.994;2023-04-10T00:37:19;3.20;1.00
6662;DHT22;3367;48.714;8.994;2023-04-10T00:39:45;3.10;1.00
6662;DHT22;3367;48.714;8.994;2023-04-10T00:42:12;3.00;1.00
6662;DHT22;3367;48.714;8.994;2023-04-10T00:44:39;3.00;1.00
6662;DHT22;3367;48.714;8.994;2023-04-10T00:47:06;2.90;1.00
6662;DHT22;3367;48.714;8.994;2023-04-10T00:49:34;2.80;1.00
6662;DHT22;3367;48.714;8.994;2023-04-10T00:52:01;2.70;1.00
6662;DHT22;3367;48.714;8.994;2023-04-10T00:54:29;2.80;93.30
6662;DHT22;3367;48.714;8.994;2023-04-10T00:56:57;2.70;41.80
6662;DHT22;3367;48.714;8.994;2023-04-10T00:59:24;2.60;94.20
6662;DHT22;3367;48.714;8.994;2023-04-10T01:01:51;2.60;99.90
6662;DHT22;3367;48.714;8.994;2023-04-10T01:04:17;2.50;99.90
6662;DHT22;3367;48.714;8.994;2023-04-10T01:06:53;2.50;99.90
6662;DHT22;3367;48.714;8.994;2023-04-10T01:09:33;2.40;99.90
6662;DHT22;3367;48.714;8.994;2023-04-10T01:12:09;2.40;99.90
6662;DHT22;3367;48.714;8.994;2023-04-10T01:14:45;2.30;99.90
6662;DHT22;3367;48.714;8.994;2023-04-10T01:17:21;2.30;99.90
6662;DHT22;3367;48.714;8.994;2023-04-10T01:20:03;2.30;1.00
6662;DHT22;3367;48.714;8.994;2023-04-10T01:22:36;2.20;1.00
6662;DHT22;3367;48.714;8.994;2023-04-10T01:25:18;2.10;99.90
6662;DHT22;3367;48.714;8.994;2023-04-10T01:28:03;2.10;1.00
6662;DHT22;3367;48.714;8.994;2023-04-10T01:30:34;2.00;1.00
6662;DHT22;3367;48.714;8.994;2023-04-10T01:33:03;2.00;1.00
6662;DHT22;3367;48.714;8.994;2023-04-10T01:35:32;2.10;1.00
6662;DHT22;3367;48.714;8.994;2023-04-10T01:38:01;2.20;53.70
6662;DHT22;3367;48.714;8.994;2023-04-10T01:40:30;2.30;15.10
6662;DHT22;3367;48.714;8.994;2023-04-10T01:42:59;2.40;1.00
6662;DHT22;3367;48.714;8.994;2023-04-10T01:45:27;2.30;1.00
6662;DHT22;3367;48.714;8.994;2023-04-10T01:47:56;2.30;1.00
6662;DHT22;3367;48.714;8.994;2023-04-10T01:50:23;2.30;1.00
6662;DHT22;3367;48.714;8.994;2023-04-10T01:52:53;2.20;1.00
6662;DHT22;3367;48.714;8.994;2023-04-10T01:55:20;2.20;1.00
6662;DHT22;3367;48.714;8.994;2023-04-10T01:57:47;2.20;1.00
6662;DHT22;3367;48.714;8.994;2023-04-10T02:00:15;2.10;1.00
6662;DHT22;3367;48.714;8.994;2023-04-10T02:02:42;2.00;1.00
6662;DHT22;3367;48.714;8.994;2023-04-10T02:05:10;1.90;1.00
6662;DHT22;3367;48.714;8.994;2023-04-10T02:07:43;1.90;1.00
6662;DHT22;3367;48.714;8.994;2023-04-10T02:10:14;1.80;1.00
6662;DHT22;3367;48.714;8.994;2023-04-10T02:12:45;1.80;1.00
6662;DHT22;3367;48.714;8.994;2023-04-10T02:15:17;1.70;1.00
6662;DHT22;3367;48.714;8.994;2023-04-10T02:17:45;1.70;23.50
6662;DHT22;3367;48.714;8.994;2023-04-10T02:20:15;1.70;99.90
6662;DHT22;3367;48.714;8.994;2023-04-10T02:22:43;1.60;99.90
6662;DHT22;3367;48.714;8.994;2023-04-10T02:25:10;1.60;99.90
6662;DHT22;3367;48.714;8.994;2023-04-10T02:27:38;1.60;99.90
6662;DHT22;3367;48.714;8.994;2023-04-10T02:30:06;1.50;99.90
6662;DHT22;3367;48.714;8.994;2023-04-10T02:32:33;1.40;99.90
6662;DHT22;3367;48.714;8.994;2023-04-10T02:35:01;1.40;99.90
6662;DHT22;3367;48.714;8.994;2023-04-10T02:37:29;1.40;1.00
6662;DHT22;3367;48.714;8.994;2023-04-10T02:39:57;1.40;1.00
6662;DHT22;3367;48.714;8.994;2023-04-10T02:42:24;1.40;1.00
6662;DHT22;3367;48.714;8.994;2023-04-10T02:44:50;1.40;1.00
6662;DHT22;3367;48.714;8.994;2023-04-10T02:47:17;1.40;1.00
6662;DHT22;3367;48.714;8.994;2023-04-10T02:49:44;1.30;1.00
6662;DHT22;3367;48.714;8.994;2023-04-10T02:52:10;1.30;1.00
6662;DHT22;3367;48.714;8.994;2023-04-10T02:54:39;1.30;1.00
6662;DHT22;3367;48.714;8.994;2023-04-10T02:57:05;1.30;1.00
6662;DHT22;3367;48.714;8.994;2023-04-10T02:59:32;1.30;1.00
6662;DHT22;3367;48.714;8.994;2023-04-10T03:01:59;1.20;1.00
6662;DHT22;3367;48.714;8.994;2023-04-10T03:04:26;1.20;1.00
6662;DHT22;3367;48.714;8.994;2023-04-10T03:06:53;1.10;1.00
6662;DHT22;3367;48.714;8.994;2023-04-10T03:09:20;1.10;1.00
6662;DHT22;3367;48.714;8.994;2023-04-10T03:11:48;1.10;1.00
6662;DHT22;3367;48.714;8.994;2023-04-10T03:14:15;1.10;1.00
6662;DHT22;3367;48.714;8.994;2023-04-10T03:16:42;1.10;1.00
6662;DHT22;3367;48.714;8.994;2023-04-10T03:19:09;1.10;90.00
6662;DHT22;3367;48.714;8.994;2023-04-10T03:21:37;1.20;99.90
6662;DHT22;3367;48.714;8.994;2023-04-10T03:24:04;1.20;99.90
6662;DHT22;3367;48.714;8.994;2023-04-10T03:26:31;1.30;99.90
6662;DHT22;3367;48.714;8.994;2023-04-10T03:29:00;1.30;99.90
6662;DHT22;3367;48.714;8.994;2023-04-10T03:31:26;1.30;95.10
6662;DHT22;3367;48.714;8.994;2023-04-10T03:33:53;1.30;99.90
6662;DHT22;3367;48.714;8.994;2023-04-10T03:36:20;1.30;99.90
6662;DHT22;3367;48.714;8.994;2023-04-10T03:38:47;1.30;99.90
6662;DHT22;3367;48.714;8.994;2023-04-10T03:41:13;1.20;23.00
6662;DHT22;3367;48.714;8.994;2023-04-10T03:43:40;1.20;28.30
6662;DHT22;3367;48.714;8.994;2023-04-10T03:46:08;1.20;99.90
6662;DHT22;3367;48.714;8.994;2023-04-10T03:48:35;1.20;99.90
6662;DHT22;3367;48.714;8.994;2023-04-10T03:51:02;1.20;48.00
6662;DHT22;3367;48.714;8.994;2023-04-10T03:53:29;1.10;35.60
6662;DHT22;3367;48.714;8.994;2023-04-10T03:56:00;1.10;60.90
6662;DHT22;3367;48.714;8.994;2023-04-10T03:58:27;1.00;84.70
6662;DHT22;3367;48.714;8.994;2023-04-10T04:00:54;1.00;43.50
6662;DHT22;3367;48.714;8.994;2023-04-10T04:03:22;1.00;52.00
6662;DHT22;3367;48.714;8.994;2023-04-10T04:05:49;1.00;66.70
6662;DHT22;3367;48.714;8.994;2023-04-10T04:08:16;0.90;1.00
6662;DHT22;3367;48.714;8.994;2023-04-10T04:10:43;0.90;1.00
6662;DHT22;3367;48.714;8.994;2023-04-10T04:13:10;0.90;1.10
6662;DHT22;3367;48.714;8.994;2023-04-10T04:15:36;0.80;99.90
6662;DHT22;3367;48.714;8.994;2023-04-10T04:18:03;0.90;99.90
6662;DHT22;3367;48.714;8.994;2023-04-10T04:20:32;0.90;99.90
6662;DHT22;3367;48.714;8.994;2023-04-10T04:22:58;1.00;99.90
6662;DHT22;3367;48.714;8.994;2023-04-10T04:25:25;1.10;1.00
6662;DHT22;3367;48.714;8.994;2023-04-10T04:27:52;1.20;1.00
6662;DHT22;3367;48.714;8.994;2023-04-10T04:30:19;1.20;99.90
6662;DHT22;3367;48.714;8.994;2023-04-10T04:32:45;1.20;99.90
6662;DHT22;3367;48.714;8.994;2023-04-10T04:35:12;1.30;99.90
6662;DHT22;3367;48.714;8.994;2023-04-10T04:37:40;1.30;99.90
6662;DHT22;3367;48.714;8.994;2023-04-10T04:40:08;1.30;99.90
6662;DHT22;3367;48.714;8.994;2023-04-10T04:42:34;1.40;99.90
6662;DHT22;3367;48.714;8.994;2023-04-10T04:45:01;1.40;38.00
6662;DHT22;3367;48.714;8.994;2023-04-10T04:47:28;1.40;57.20
6662;DHT22;3367;48.714;8.994;2023-04-10T04:49:55;1.50;18.30
6662;DHT22;3367;48.714;8.994;2023-04-10T04:52:21;1.50;32.00
6662;DHT22;3367;48.714;8.994;2023-04-10T04:54:51;1.50;1.00
6662;DHT22;3367;48.714;8.994;2023-04-10T04:57:18;1.50;1.00
6662;DHT22;3367;48.714;8.994;2023-04-10T04:59:44;1.50;1.00
6662;DHT22;3367;48.714;8.994;2023-04-10T05:02:11;1.50;1.00
6662;DHT22;3367;48.714;8.994;2023-04-10T05:04:38;1.40;1.00
6662;DHT22;3367;48.714;8.994;2023-04-10T05:07:05;1.40;1.00
6662;DHT22;3367;48.714;8.994;2023-04-10T05:09:31;1.30;1.00
6662;DHT22;3367;48.714;8.994;2023-04-10T05:12:00;1.30;1.00
6662;DHT22;3367;48.714;8.994;2023-04-10T05:14:26;1.30;1.00
6662;DHT22;3367;48.714;8.994;2023-04-10T05:16:53;1.30;1.00
6662;DHT22;3367;48.714;8.994;2023-04-10T05:19:20;1.40;1.00
6662;DHT22;3367;48.714;8.994;2023-04-10T05:21:47;1.40;1.00
6662;DHT22;3367;48.714;8.994;2023-04-10T05:24:13;1.50;1.00
6662;DHT22;3367;48.714;8.994;2023-04-10T05:26:40;1.50;1.00
6662;DHT22;3367;48.714;8.994;2023-04-10T05:29:09;1.60;1.00
6662;DHT22;3367;48.714;8.994;2023-04-10T05:31:35;1.70;1.00
6662;DHT22;3367;48.714;8.994;2023-04-10T05:34:02;1.80;1.00
6662;DHT22;3367;48.714;8.994;2023-04-10T05:36:29;2.00;1.00
6662;DHT22;3367;48.714;8.994;2023-04-10T05:38:56;2.10;1.00
6662;DHT22;3367;48.714;8.994;2023-04-10T05:41:22;2.30;1.00
6662;DHT22;3367;48.714;8.994;2023-04-10T05:43:49;2.50;1.00
6662;DHT22;3367;48.714;8.994;2023-04-10T05:46:17;2.70;99.90
6662;DHT22;3367;48.714;8.994;2023-04-10T05:48:44;3.00;99.90
6662;DHT22;3367;48.714;8.994;2023-04-10T05:51:11;3.20;1.00
6662;DHT22;3367;48.714;8.994;2023-04-10T05:53:38;3.40;1.00
6662;DHT22;3367;48.714;8.994;2023-04-10T05:56:05;3.40;99.90
6662;DHT22;3367;48.714;8.994;2023-04-10T05:58:32;3.60;99.90
6662;DHT22;3367;48.714;8.994;2023-04-10T06:00:59;3.80;99.90
6662;DHT22;3367;48.714;8.994;2023-04-10T06:03:27;3.90;84.10
6662;DHT22;3367;48.714;8.994;2023-04-10T06:05:55;4.00;1.00
6662;DHT22;3367;48.714;8.994;2023-04-10T06:08:22;4.20;1.00
6662;DHT22;3367;48.714;8.994;2023-04-10T06:10:48;4.40;1.00
6662;DHT22;3367;48.714;8.994;2023-04-10T06:13:15;4.50;1.00
6662;DHT22;3367;48.714;8.994;2023-04-10T06:15:42;4.70;1.00
6662;DHT22;3367;48.714;8.994;2023-04-10T06:18:09;4.80;1.00
6662;DHT22;3367;48.714;8.994;2023-04-10T06:20:37;5.00;1.00
6662;DHT22;3367;48.714;8.994;2023-04-10T06:23:04;5.10;1.00
6662;DHT22;3367;48.714;8.994;2023-04-10T06:25:31;5.30;1.00
6662;DHT22;3367;48.714;8.994;2023-04-10T06:27:58;5.40;1.00
6662;DHT22;3367;48.714;8.994;2023-04-10T06:30:24;5.50;1.00
6662;DHT22;3367;48.714;8.994;2023-04-10T06:32:51;5.70;1.00
6662;DHT22;3367;48.714;8.994;2023-04-10T06:35:18;6.00;24.60
6662;DHT22;3367;48.714;8.994;2023-04-10T06:37:47;6.30;1.00
6662;DHT22;3367;48.714;8.994;2023-04-10T06:40:14;6.70;1.00
6662;DHT22;3367;48.714;8.994;2023-04-10T06:42:41;7.10;1.00
6662;DHT22;3367;48.714;8.994;2023-04-10T06:45:08;7.50;1.00
6662;DHT22;3367;48.714;8.994;2023-04-10T06:47:35;7.80;1.00
6662;DHT22;3367;48.714;8.994;2023-04-10T06:50:02;8.20;1.00
6662;DHT22;3367;48.714;8.994;2023-04-10T06:52:29;8.60;1.00
6662;DHT22;3367;48.714;8.994;2023-04-10T06:54:57;9.00;1.00
6662;DHT22;3367;48.714;8.994;2023-04-10T06:57:23;9.40;1.00
6662;DHT22;3367;48.714;8.994;2023-04-10T06:59:50;9.80;1.00
6662;DHT22;3367;48.714;8.994;2023-04-10T07:02:17;10.00;1.00
6662;DHT22;3367;48.714;8.994;2023-04-10T07:04:43;10.20;1.00
6662;DHT22;3367;48.714;8.994;2023-04-10T07:07:10;10.40;1.00
6662;DHT22;3367;48.714;8.994;2023-04-10T07:09:38;10.70;1.00
6662;DHT22;3367;48.714;8.994;2023-04-10T07:12:06;11.10;1.00
6662;DHT22;3367;48.714;8.994;2023-04-10T07:14:33;11.40;1.00
6662;DHT22;3367;48.714;8.994;2023-04-10T07:17:00;11.50;1.00
6662;DHT22;3367;48.714;8.994;2023-04-10T07:19:27;12.00;1.00
6662;DHT22;3367;48.714;8.994;2023-04-10T07:21:54;12.20;1.00
6662;DHT22;3367;48.714;8.994;2023-04-10T07:24:21;12.20;1.00
6662;DHT22;3367;48.714;8.994;2023-04-10T07:26:48;12.60;1.00
6662;DHT22;3367;48.714;8.994;2023-04-10T07:29:16;12.90;1.00
6662;DHT22;3367;48.714;8.994;2023-04-10T07:31:44;12.90;1.00
6662;DHT22;3367;48.714;8.994;2023-04-10T07:34:11;13.00;1.00
6662;DHT22;3367;48.714;8.994;2023-04-10T07:36:38;13.40;1.00
6662;DHT22;3367;48.714;8.994;2023-04-10T07:39:04;13.60;1.00
6662;DHT22;3367;48.714;8.994;2023-04-10T07:41:31;13.80;1.00
6662;DHT22;3367;48.714;8.994;2023-04-10T07:43:58;13.80;1.00
6662;DHT22;3367;48.714;8.994;2023-04-10T07:46:26;13.80;1.00
6662;DHT22;3367;48.714;8.994;2023-04-10T07:48:53;13.40;1.00
6662;DHT22;3367;48.714;8.994;2023-04-10T07:51:20;13.10;1.00
6662;DHT22;3367;48.714;8.994;2023-04-10T07:53:47;13.00;1.00
6662;DHT22;3367;48.714;8.994;2023-04-10T07:56:15;12.50;1.00
6662;DHT22;3367;48.714;8.994;2023-04-10T07:58:42;12.40;1.00
6662;DHT22;3367;48.714;8.994;2023-04-10T08:01:09;12.20;1.00
6662;DHT22;3367;48.714;8.994;2023-04-10T08:03:41;12.30;1.00
6662;DHT22;3367;48.714;8.994;2023-04-10T08:06:09;12.20;1.00
6662;DHT22;3367;48.714;8.994;2023-04-10T08:08:36;12.20;1.00
6662;DHT22;3367;48.714;8.994;2023-04-10T08:11:05;12.20;1.00
6662;DHT22;3367;48.714;8.994;2023-04-10T08:13:32;12.10;1.00
6662;DHT22;3367;48.714;8.994;2023-04-10T08:15:59;12.20;1.00
6662;DHT22;3367;48.714;8.994;2023-04-10T08:18:25;12.30;1.00
6662;DHT22;3367;48.714;8.994;2023-04-10T08:20:54;12.40;1.00
6662;DHT22;3367;48.714;8.994;2023-04-10T08:23:20;12.30;1.00
6662;DHT22;3367;48.714;8.994;2023-04-10T08:25:47;12.20;1.00
6662;DHT22;3367;48.714;8.994;2023-04-10T08:28:14;12.60;1.00
6662;DHT22;3367;48.714;8.994;2023-04-10T08:30:40;12.30;1.00
6662;DHT22;3367;48.714;8.994;2023-04-10T08:33:07;12.20;1.00
6662;DHT22;3367;48.714;8.994;2023-04-10T08:35:34;12.20;1.00
6662;DHT22;3367;48.714;8.994;2023-04-10T08:38:02;12.30;1.00
6662;DHT22;3367;48.714;8.994;2023-04-10T08:40:29;12.30;1.00
6662;DHT22;3367;48.714;8.994;2023-04-10T08:42:55;12.50;1.00
6662;DHT22;3367;48.714;8.994;2023-04-10T08:45:22;12.50;1.00
6662;DHT22;3367;48.714;8.994;2023-04-10T08:47:50;12.50;1.00
6662;DHT22;3367;48.714;8.994;2023-04-10T08:50:18;12.60;1.00
6662;DHT22;3367;48.714;8.994;2023-04-10T08:52:50;12.70;1.00
6662;DHT22;3367;48.714;8.994;2023-04-10T08:55:19;12.90;1.00
6662;DHT22;3367;48.714;8.994;2023-04-10T08:57:46;13.00;1.00
6662;DHT22;3367;48.714;8.994;2023-04-10T09:00:13;13.00;1.00
6662;DHT22;3367;48.714;8.994;2023-04-10T09:02:40;13.10;1.00
6662;DHT22;3367;48.714;8.994;2023-04-10T09:05:10;13.10;1.00
6662;DHT22;3367;48.714;8.994;2023-04-10T09:07:37;13.10;1.00
6662;DHT22;3367;48.714;8.994;2023-04-10T09:10:05;13.20;1.00
6662;DHT22;3367;48.714;8.994;2023-04-10T09:12:43;13.30;1.00
6662;DHT22;3367;48.714;8.994;2023-04-10T09:15:11;13.50;1.00
6662;DHT22;3367;48.714;8.994;2023-04-10T09:17:53;13.60;1.00
6662;DHT22;3367;48.714;8.994;2023-04-10T09:20:21;13.80;1.00
6662;DHT22;3367;48.714;8.994;2023-04-10T09:22:48;13.80;1.00
6662;DHT22;3367;48.714;8.994;2023-04-10T09:25:29;13.80;1.00
6662;DHT22;3367;48.714;8.994;2023-04-10T09:28:02;13.80;1.00
6662;DHT22;3367;48.714;8.994;2023-04-10T09:30:36;13.80;1.00
6662;DHT22;3367;48.714;8.994;2023-04-10T09:33:20;13.90;1.00
6662;DHT22;3367;48.714;8.994;2023-04-10T09:35:47;14.10;1.00
6662;DHT22;3367;48.714;8.994;2023-04-10T09:38:15;14.10;1.00
6662;DHT22;3367;48.714;8.994;2023-04-10T09:40:42;14.10;1.00
6662;DHT22;3367;48.714;8.994;2023-04-10T09:43:21;14.10;1.00
6662;DHT22;3367;48.714;8.994;2023-04-10T09:45:49;14.10;1.00
6662;DHT22;3367;48.714;8.994;2023-04-10T09:48:17;14.20;1.00
6662;DHT22;3367;48.714;8.994;2023-04-10T09:50:44;14.40;1.00
6662;DHT22;3367;48.714;8.994;2023-04-10T09:53:12;14.40;1.00
6662;DHT22;3367;48.714;8.994;2023-04-10T09:55:40;14.40;1.00
6662;DHT22;3367;48.714;8.994;2023-04-10T09:58:08;14.50;1.00
6662;DHT22;3367;48.714;8.994;2023-04-10T10:00:42;14.70;1.00
6662;DHT22;3367;48.714;8.994;2023-04-10T10:03:11;14.70;1.00
6662;DHT22;3367;48.714;8.994;2023-04-10T10:05:40;14.80;1.00
6662;DHT22;3367;48.714;8.994;2023-04-10T10:08:08;15.10;1.00
6662;DHT22;3367;48.714;8.994;2023-04-10T10:10:37;15.10;1.00
6662;DHT22;3367;48.714;8.994;2023-04-10T10:13:07;15.20;1.00
6662;DHT22;3367;48.714;8.994;2023-04-10T10:15:40;15.30;1.00
6662;DHT22;3367;48.714;8.994;2023-04-10T10:18:16;15.30;1.00
6662;DHT22;3367;48.714;8.994;2023-04-10T10:20:45;15.40;1.00
6662;DHT22;3367;48.714;8.994;2023-04-10T10:23:12;15.50;1.00
6662;DHT22;3367;48.714;8.994;2023-04-10T10:25:42;15.50;1.00
6662;DHT22;3367;48.714;8.994;2023-04-10T10:28:12;15.60;1.00
6662;DHT22;3367;48.714;8.994;2023-04-10T10:30:40;15.80;1.00
6662;DHT22;3367;48.714;8.994;2023-04-10T10:33:07;15.90;1.00
6662;DHT22;3367;48.714;8.994;2023-04-10T10:35:36;16.10;1.00
6662;DHT22;3367;48.714;8.994;2023-04-10T10:38:03;16.10;1.00
6662;DHT22;3367;48.714;8.994;2023-04-10T10:40:32;16.20;1.00
6662;DHT22;3367;48.714;8.994;2023-04-10T10:43:09;16.30;1.00
6662;DHT22;3367;48.714;8.994;2023-04-10T10:45:45;16.30;1.00
6662;DHT22;3367;48.714;8.994;2023-04-10T10:48:15;16.30;1.00
6662;DHT22;3367;48.714;8.994;2023-04-10T10:50:50;16.40;1.00
6662;DHT22;3367;48.714;8.994;2023-04-10T10:53:30;16.60;1.00
6662;DHT22;3367;48.714;8.994;2023-04-10T10:55:57;16.70;1.00
6662;DHT22;3367;48.714;8.994;2023-04-10T10:58:45;16.60;1.00
6662;DHT22;3367;48.714;8.994;2023-04-10T11:01:13;16.40;1.00
6662;DHT22;3367;48.714;8.994;2023-04-10T11:03:41;16.60;1.00
6662;DHT22;3367;48.714;8.994;2023-04-10T11:06:10;16.50;1.00
6662;DHT22;3367;48.714;8.994;2023-04-10T11:08:42;16.60;1.00
6662;DHT22;3367;48.714;8.994;2023-04-10T11:11:17;16.70;1.00
6662;DHT22;3367;48.714;8.994;2023-04-10T11:14:12;16.90;1.00
6662;DHT22;3367;48.714;8.994;2023-04-10T11:16:45;17.00;1.00
6662;DHT22;3367;48.714;8.994;2023-04-10T11:19:12;17.00;1.00
6662;DHT22;3367;48.714;8.994;2023-04-10T11:22:04;16.90;1.00
6662;DHT22;3367;48.714;8.994;2023-04-10T11:24:55;16.90;1.00
6662;DHT22;3367;48.714;8.994;2023-04-10T11:27:43;16.90;1.00
6662;DHT22;3367;48.714;8.994;2023-04-10T11:30:27;16.90;1.00
6662;DHT22;3367;48.714;8.994;2023-04-10T11:32:56;16.90;1.00
6662;DHT22;3367;48.714;8.994;2023-04-10T11:35:25;16.80;1.00
6662;DHT22;3367;48.714;8.994;2023-04-10T11:38:10;16.80;1.00
6662;DHT22;3367;48.714;8.994;2023-04-10T11:40:52;17.00;1.00
6662;DHT22;3367;48.714;8.994;2023-04-10T11:43:19;17.10;1.00
6662;DHT22;3367;48.714;8.994;2023-04-10T11:45:46;16.80;1.00
6662;DHT22;3367;48.714;8.994;2023-04-10T11:48:15;17.10;1.00
6662;DHT22;3367;48.714;8.994;2023-04-10T11:50:42;17.20;1.00
6662;DHT22;3367;48.714;8.994;2023-04-10T11:53:17;17.20;1.00
6662;DHT22;3367;48.714;8.994;2023-04-10T11:55:44;17.00;1.00
6662;DHT22;3367;48.714;8.994;2023-04-10T11:58:21;16.90;1.00
6662;DHT22;3367;48.714;8.994;2023-04-10T12:00:55;16.90;1.00
6662;DHT22;3367;48.714;8.994;2023-04-10T12:03:32;17.30;1.00
6662;DHT22;3367;48.714;8.994;2023-04-10T12:05:59;17.60;1.00
6662;DHT22;3367;48.714;8.994;2023-04-10T12:08:35;17.80;1.00
6662;DHT22;3367;48.714;8.994;2023-04-10T12:11:03;17.80;1.00
6662;DHT22;3367;48.714;8.994;2023-04-10T12:13:30;17.70;1.00
6662;DHT22;3367;48.714;8.994;2023-04-10T12:15:59;17.90;1.00
6662;DHT22;3367;48.714;8.994;2023-04-10T12:18:27;17.90;1.00
6662;DHT22;3367;48.714;8.994;2023-04-10T12:20:55;17.90;1.00
6662;DHT22;3367;48.714;8.994;2023-04-10T12:23:24;18.20;1.00
6662;DHT22;3367;48.714;8.994;2023-04-10T12:25:52;18.00;1.00
6662;DHT22;3367;48.714;8.994;2023-04-10T12:28:20;18.00;1.00
6662;DHT22;3367;48.714;8.994;2023-04-10T12:30:48;17.80;1.00
6662;DHT22;3367;48.714;8.994;2023-04-10T12:33:19;18.00;1.00
6662;DHT22;3367;48.714;8.994;2023-04-10T12:35:47;18.20;1.00
6662;DHT22;3367;48.714;8.994;2023-04-10T12:38:34;18.40;1.00
6662;DHT22;3367;48.714;8.994;2023-04-10T12:41:01;18.70;1.00
6662;DHT22;3367;48.714;8.994;2023-04-10T12:43:35;18.60;1.00
6662;DHT22;3367;48.714;8.994;2023-04-10T12:46:02;18.90;1.00
6662;DHT22;3367;48.714;8.994;2023-04-10T12:48:30;19.00;1.00
6662;DHT22;3367;48.714;8.994;2023-04-10T12:50:56;19.10;1.00
6662;DHT22;3367;48.714;8.994;2023-04-10T12:53:25;19.10;1.00
6662;DHT22;3367;48.714;8.994;2023-04-10T12:56:00;18.90;1.00
6662;DHT22;3367;48.714;8.994;2023-04-10T12:58:27;19.00;1.00
6662;DHT22;3367;48.714;8.994;2023-04-10T13:00:56;19.10;1.00
6662;DHT22;3367;48.714;8.994;2023-04-10T13:03:23;19.10;1.00
6662;DHT22;3367;48.714;8.994;2023-04-10T13:05:50;19.00;1.00
6662;DHT22;3367;48.714;8.994;2023-04-10T13:08:17;19.10;1.00
6662;DHT22;3367;48.714;8.994;2023-04-10T13:10:46;19.10;1.00
6662;DHT22;3367;48.714;8.994;2023-04-10T13:13:13;19.20;1.00
6662;DHT22;3367;48.714;8.994;2023-04-10T13:15:40;19.30;1.00
6662;DHT22;3367;48.714;8.994;2023-04-10T13:18:07;19.50;1.00
6662;DHT22;3367;48.714;8.994;2023-04-10T13:20:35;19.70;1.00
6662;DHT22;3367;48.714;8.994;2023-04-10T13:23:02;19.70;1.00
6662;DHT22;3367;48.714;8.994;2023-04-10T13:25:30;19.60;1.00
6662;DHT22;3367;48.714;8.994;2023-04-10T13:28:00;19.80;1.00
6662;DHT22;3367;48.714;8.994;2023-04-10T13:30:27;19.70;1.00
6662;DHT22;3367;48.714;8.994;2023-04-10T13:32:54;19.60;1.00
6662;DHT22;3367;48.714;8.994;2023-04-10T13:35:21;19.50;1.00
6662;DHT22;3367;48.714;8.994;2023-04-10T13:37:48;19.30;1.00
6662;DHT22;3367;48.714;8.994;2023-04-10T13:40:18;19.40;1.00
6662;DHT22;3367;48.714;8.994;2023-04-10T13:42:45;19.50;1.00
6662;DHT22;3367;48.714;8.994;2023-04-10T13:45:13;19.60;1.00
6662;DHT22;3367;48.714;8.994;2023-04-10T13:47:40;19.20;1.00
6662;DHT22;3367;48.714;8.994;2023-04-10T13:50:08;19.20;1.00
6662;DHT22;3367;48.714;8.994;2023-04-10T13:52:35;19.30;1.00
6662;DHT22;3367;48.714;8.994;2023-04-10T13:55:01;19.40;1.00
6662;DHT22;3367;48.714;8.994;2023-04-10T13:57:28;19.40;1.00
6662;DHT22;3367;48.714;8.994;2023-04-10T13:59:55;19.60;1.00
6662;DHT22;3367;48.714;8.994;2023-04-10T14:02:23;19.50;1.00
6662;DHT22;3367;48.714;8.994;2023-04-10T14:04:50;19.40;1.00
6662;DHT22;3367;48.714;8.994;2023-04-10T14:07:17;19.30;1.00
6662;DHT22;3367;48.714;8.994;2023-04-10T14:09:44;19.40;1.00
6662;DHT22;3367;48.714;8.994;2023-04-10T14:12:11;19.50;1.00
6662;DHT22;3367;48.714;8.994;2023-04-10T14:14:40;19.40;1.00
6662;DHT22;3367;48.714;8.994;2023-04-10T14:17:07;19.40;1.00
6662;DHT22;3367;48.714;8.994;2023-04-10T14:19:36;19.10;1.00
6662;DHT22;3367;48.714;8.994;2023-04-10T14:22:03;19.30;1.00
6662;DHT22;3367;48.714;8.994;2023-04-10T14:24:29;19.40;1.00
6662;DHT22;3367;48.714;8.994;2023-04-10T14:26:56;19.50;1.00
6662;DHT22;3367;48.714;8.994;2023-04-10T14:29:25;19.50;1.00
6662;DHT22;3367;48.714;8.994;2023-04-10T14:31:52;19.20;1.00
6662;DHT22;3367;48.714;8.994;2023-04-10T14:34:19;19.10;1.00
6662;DHT22;3367;48.714;8.994;2023-04-10T14:36:47;19.40;1.00
6662;DHT22;3367;48.714;8.994;2023-04-10T14:39:14;19.30;1.00
6662;DHT22;3367;48.714;8.994;2023-04-10T14:41:40;19.10;1.00
6662;DHT22;3367;48.714;8.994;2023-04-10T14:44:07;19.10;1.00
6662;DHT22;3367;48.714;8.994;2023-04-10T14:46:34;19.30;1.00
6662;DHT22;3367;48.714;8.994;2023-04-10T14:49:01;19.20;1.00
6662;DHT22;3367;48.714;8.994;2023-04-10T14:51:28;19.20;1.00
6662;DHT22;3367;48.714;8.994;2023-04-10T14:53:57;19.20;1.00
6662;DHT22;3367;48.714;8.994;2023-04-10T14:56:24;19.50;1.00
6662;DHT22;3367;48.714;8.994;2023-04-10T14:58:51;19.50;1.00
6662;DHT22;3367;48.714;8.994;2023-04-10T15:01:17;19.40;1.00
6662;DHT22;3367;48.714;8.994;2023-04-10T15:03:45;19.20;1.00
6662;DHT22;3367;48.714;8.994;2023-04-10T15:06:13;18.90;1.00
6662;DHT22;3367;48.714;8.994;2023-04-10T15:08:40;18.70;1.00
6662;DHT22;3367;48.714;8.994;2023-04-10T15:11:08;18.60;1.00
6662;DHT22;3367;48.714;8.994;2023-04-10T15:13:35;18.60;1.00
6662;DHT22;3367;48.714;8.994;2023-04-10T15:16:03;18.70;1.00
6662;DHT22;3367;48.714;8.994;2023-04-10T15:18:30;18.60;1.00
6662;DHT22;3367;48.714;8.994;2023-04-10T15:20:57;18.60;1.00
6662;DHT22;3367;48.714;8.994;2023-04-10T15:23:24;18.70;1.00
6662;DHT22;3367;48.714;8.994;2023-04-10T15:25:51;18.60;1.00
6662;DHT22;3367;48.714;8.994;2023-04-10T15:28:19;18.60;1.00
6662;DHT22;3367;48.714;8.994;2023-04-10T15:30:46;18.30;1.00
6662;DHT22;3367;48.714;8.994;2023-04-10T15:33:14;18.10;1.00
6662;DHT22;3367;48.714;8.994;2023-04-10T15:35:41;18.00;1.00
6662;DHT22;3367;48.714;8.994;2023-04-10T15:38:13;18.20;1.00
6662;DHT22;3367;48.714;8.994;2023-04-10T15:40:39;18.00;1.00
6662;DHT22;3367;48.714;8.994;2023-04-10T15:43:06;18.10;1.00
6662;DHT22;3367;48.714;8.994;2023-04-10T15:45:35;18.00;1.00
6662;DHT22;3367;48.714;8.994;2023-04-10T15:48:02;18.00;1.00
6662;DHT22;3367;48.714;8.994;2023-04-10T15:50:29;18.00;1.00
6662;DHT22;3367;48.714;8.994;2023-04-10T15:52:56;18.00;1.00
6662;DHT22;3367;48.714;8.994;2023-04-10T15:55:23;18.00;1.00
6662;DHT22;3367;48.714;8.994;2023-04-10T15:57:49;17.80;1.00
6662;DHT22;3367;48.714;8.994;2023-04-10T16:00:17;17.80;1.00
6662;DHT22;3367;48.714;8.994;2023-04-10T16:02:45;17.90;1.00
6662;DHT22;3367;48.714;8.994;2023-04-10T16:05:12;17.80;1.00
6662;DHT22;3367;48.714;8.994;2023-04-10T16:07:39;17.70;1.00
6662;DHT22;3367;48.714;8.994;2023-04-10T16:10:08;17.60;1.00
6662;DHT22;3367;48.714;8.994;2023-04-10T16:12:35;17.40;1.00
6662;DHT22;3367;48.714;8.994;2023-04-10T16:15:02;17.40;1.00
6662;DHT22;3367;48.714;8.994;2023-04-10T16:17:29;17.30;1.00
6662;DHT22;3367;48.714;8.994;2023-04-10T16:19:57;17.30;1.00
6662;DHT22;3367;48.714;8.994;2023-04-10T16:22:24;17.20;1.00
6662;DHT22;3367;48.714;8.994;2023-04-10T16:24:54;17.20;1.00
6662;DHT22;3367;48.714;8.994;2023-04-10T16:27:21;17.20;1.00
6662;DHT22;3367;48.714;8.994;2023-04-10T16:29:47;17.20;1.00